Manti, Utah
Current Conditions -  °F | °C
As of 9:35 PM on Friday 24 Oct 2014 (Local Time) from KDTA Reporting Station
Clear Clear  
Wind Chill: 61°   Ceiling: Unl
Heat Index: 61°   Visibility: 10mi
Dew Point: 25°   Wind: 9mph
Humidity: 25%   Direction: 150°SSE
Pressure: 30.13"   Gusts: NA
Location:  39.27°N, 111.64°W
Report Text: KDTA 250335Z AUTO 15008KT 10SM CLR 16/M04 A3013 RMK AO1 T01631038
Loading
Personal Weather Stations






























Interactive Weather Map
Tropical Storm Tracking
New forecast layout! Learn more

10-Day Weather Forecast

Advertisements
Track Severe Weather on mobile